Weather reports worldwide

Advertisment
Pajares/Valgrande, Spain (8031): temperature & dewpoint: 17.08.2019 14:00:00 - 23.08.2019 14:00:00 (CEST)Pajares/Valgrande, Spain (8031): wind speed & gusts: 17.08.2019 14:00:00 - 23.08.2019 14:00:00 (CEST)Pajares/Valgrande, Spain (8031): wind direction: 17.08.2019 14:00:00 - 23.08.2019 14:00:00 (CEST)Pajares/Valgrande, Spain (8031): precipitation: 17.08.2019 14:00:00 - 23.08.2019 14:00:00 (CEST)
Date & Time tt [°C] td [°C] ff [km/h] ff [kn] fx [km/h] fx [kn] dd rr [mm]
23.08.2019 14:00:00 - - - - - - - -
23.08.2019 13:00:00 22,0 5,5 6 4 16 9 N 0,0
23.08.2019 12:00:00 21,9 5,0 5 3 13 7 N 0,0
23.08.2019 11:00:00 21,9 5,3 1 1 6 4 E 0,0
23.08.2019 10:00:00 20,3 5,1 2 1 12 6 WNW 0,0
23.08.2019 09:00:00 16,2 3,6 9 5 16 9 SSW 0,0
23.08.2019 08:00:00 14,9 1,5 13 7 18 10 SSW -
23.08.2019 07:00:00 14,8 -0,3 13 7 17 9 SSW 0,0
23.08.2019 06:00:00 14,5 -0,7 11 6 16 8 SSW 0,0
23.08.2019 05:00:00 14,8 -1,4 10 5 16 9 SSW 0,0
23.08.2019 04:00:00 14,9 -1,0 10 5 16 9 SSW 0,0
23.08.2019 03:00:00 15,2 -0,3 11 6 20 11 SSW 0,0
23.08.2019 02:00:00 16,0 2,1 17 9 21 11 S -
23.08.2019 01:00:00 15,7 5,0 15 8 19 10 S 0,0
23.08.2019 00:00:00 14,4 1,9 10 6 14 8 SSW 0,0
22.08.2019 23:00:00 14,5 5,0 12 6 14 8 SSW 0,0
22.08.2019 22:00:00 14,3 5,9 8 5 14 8 SSW 0,0
22.08.2019 21:00:00 14,3 7,6 9 5 11 6 SSW 0,0
22.08.2019 20:00:00 18,6 10,2 3 2 10 5 W -
22.08.2019 19:00:00 18,9 9,9 5 3 13 7 NW 0,0
22.08.2019 18:00:00 19,8 9,0 7 4 17 9 NW 0,0
22.08.2019 17:00:00 20,4 6,7 6 3 16 9 NW 0,0
22.08.2019 16:00:00 20,5 7,8 6 3 15 8 WNW 0,0
22.08.2019 15:00:00 19,9 8,3 5 3 10 6 NW 0,0
22.08.2019 14:00:00 19,7 7,4 5 3 9 5 WNW -
22.08.2019 13:00:00 20,4 4,5 4 2 9 5 NW 0,0
22.08.2019 12:00:00 20,6 5,5 3 2 12 6 ESE 0,0
22.08.2019 11:00:00 19,5 5,5 5 3 10 6 ESE 0,0
22.08.2019 10:00:00 18,0 5,3 4 2 15 8 SE 0,0
22.08.2019 09:00:00 15,0 4,3 4 2 16 9 S 0,0
22.08.2019 08:00:00 11,7 3,2 8 5 14 7 SSW -
22.08.2019 07:00:00 13,8 3,8 6 4 21 11 S 0,0
22.08.2019 06:00:00 13,7 3,8 14 8 21 12 S 0,0
22.08.2019 05:00:00 13,8 4,1 16 9 24 13 S 0,0
22.08.2019 04:00:00 13,8 4,6 16 9 23 12 SSE 0,0
22.08.2019 03:00:00 13,2 5,3 10 6 15 8 S 0,0
22.08.2019 02:00:00 12,2 5,0 11 6 13 7 SSW -
22.08.2019 01:00:00 9,9 7,8 1 0 8 4 NW 0,0
22.08.2019 00:00:00 11,6 9,7 2 1 8 4 SW 0,0
21.08.2019 23:00:00 11,6 9,8 5 3 14 7 WNW 0,0
21.08.2019 22:00:00 12,1 10,3 2 1 8 5 W 0,0
21.08.2019 21:00:00 12,4 10,4 5 3 13 7 NW 0,0
21.08.2019 20:00:00 13,0 10,5 6 3 12 7 NW -
21.08.2019 19:00:00 13,6 9,7 6 3 13 7 WNW 0,0
21.08.2019 18:00:00 14,5 9,6 8 4 16 9 NW 0,0
21.08.2019 17:00:00 15,5 9,8 7 4 18 10 NW 0,0
21.08.2019 16:00:00 15,5 9,6 8 4 18 10 NNW 0,0
21.08.2019 15:00:00 15,5 9,2 6 4 15 8 NW 0,0
21.08.2019 14:00:00 14,8 9,8 4 2 10 6 NW -
21.08.2019 13:00:00 13,3 8,4 5 3 10 5 WNW 0,0
21.08.2019 12:00:00 16,5 8,5 5 3 14 8 N 0,0
21.08.2019 11:00:00 13,9 7,1 13 7 25 14 S 0,0
21.08.2019 10:00:00 13,1 7,3 16 9 22 12 S 0,0
21.08.2019 09:00:00 11,4 5,9 19 10 26 14 S 0,0
21.08.2019 08:00:00 10,5 4,5 19 10 31 17 S -
21.08.2019 07:00:00 9,8 4,8 24 13 32 17 S 0,0
21.08.2019 06:00:00 9,2 6,2 24 13 35 19 S 0,0
21.08.2019 05:00:00 9,1 6,7 18 10 29 15 SSE 0,0
21.08.2019 04:00:00 7,6 6,1 1 1 6 3 SSW 0,0
21.08.2019 03:00:00 8,6 7,0 1 0 6 4 N 0,0
21.08.2019 02:00:00 9,3 7,7 1 0 9 5 SE -
21.08.2019 01:00:00 9,4 7,8 2 1 8 5 N 0,0
21.08.2019 00:00:00 9,8 8,3 1 1 10 5 NE 0,0
20.08.2019 23:00:00 10,2 8,7 3 1 6 3 W 0,0
20.08.2019 22:00:00 10,2 8,7 1 1 8 4 N 0,0
20.08.2019 21:00:00 10,4 8,7 3 2 10 5 NNW 0,0
20.08.2019 20:00:00 10,8 9,0 4 2 11 6 W -
20.08.2019 19:00:00 11,1 9,3 3 2 9 5 NW 0,0
20.08.2019 18:00:00 11,3 9,6 4 2 11 6 NW 0,0
20.08.2019 17:00:00 11,1 9,6 3 2 12 7 WNW 0,0
20.08.2019 16:00:00 11,3 9,9 6 3 13 7 NNW 0,0
20.08.2019 15:00:00 10,9 9,4 6 3 13 7 NW 0,0
20.08.2019 14:00:00 10,3 8,9 5 3 14 7 NNW -
20.08.2019 13:00:00 9,0 7,6 5 3 14 7 NW 0,0
20.08.2019 12:00:00 9,4 8,0 6 3 18 10 NW 0,0
20.08.2019 11:00:00 8,2 6,8 3 2 14 8 NNW 0,0
20.08.2019 10:00:00 7,9 6,5 7 4 - - NW -
20.08.2019 09:00:00 7,7 6,4 9 5 19 10 NNW 0,1
20.08.2019 08:00:00 7,7 6,4 8 5 20 11 NNW -
20.08.2019 07:00:00 7,7 6,4 8 5 17 9 NNW 0,7
20.08.2019 06:00:00 7,7 6,4 7 4 16 9 NNW 0,7
20.08.2019 05:00:00 7,6 6,2 8 4 17 9 NNW 0,7
20.08.2019 04:00:00 7,5 6,1 9 5 18 10 NW 1,0
20.08.2019 03:00:00 7,7 6,4 8 4 15 8 NW 0,8
20.08.2019 02:00:00 7,7 6,4 6 3 15 8 NNW -
20.08.2019 01:00:00 7,5 6,1 8 4 16 9 NNW 1,3
20.08.2019 00:00:00 7,5 6,1 6 3 16 8 NNW 0,6
19.08.2019 23:00:00 7,6 6,2 5 3 - - NW -
19.08.2019 22:00:00 7,7 6,4 10 5 19 10 NW 1,5
19.08.2019 21:00:00 8,2 6,8 9 5 17 9 NW 1,1
19.08.2019 20:00:00 8,2 6,8 9 5 23 13 NW -
19.08.2019 19:00:00 8,2 6,8 9 5 21 11 NW 0,0
19.08.2019 18:00:00 8,8 7,3 9 5 23 13 NW 0,0
19.08.2019 17:00:00 9,7 8,1 6 3 13 7 WNW 0,0
19.08.2019 16:00:00 9,7 8,3 6 4 13 7 NW 0,0
19.08.2019 15:00:00 9,3 7,8 5 3 11 6 NW 0,0
19.08.2019 14:00:00 8,6 7,3 4 2 13 7 NW -
19.08.2019 13:00:00 8,0 6,7 5 3 11 6 NW 0,1
19.08.2019 12:00:00 7,6 6,2 5 3 9 5 WNW 0,2
19.08.2019 11:00:00 7,3 5,9 5 3 10 5 NW 0,4
19.08.2019 10:00:00 7,0 5,6 4 2 9 5 NW 0,2
19.08.2019 09:00:00 6,8 5,5 4 2 9 5 NW 0,0
19.08.2019 08:00:00 6,6 5,3 4 2 6 4 NW -
19.08.2019 07:00:00 6,5 5,1 2 1 10 6 W 0,0
19.08.2019 06:00:00 6,4 5,0 1 1 8 5 W 0,0
19.08.2019 05:00:00 6,6 5,3 4 2 12 7 NW 0,0
19.08.2019 04:00:00 6,6 5,3 5 3 - - WNW -
19.08.2019 03:00:00 6,7 5,3 5 3 11 6 NW 0,2
19.08.2019 02:00:00 6,6 5,3 7 4 12 7 NW -
19.08.2019 01:00:00 6,9 5,5 5 3 15 8 NW 0,6
19.08.2019 00:00:00 7,2 5,8 7 4 14 8 NW 0,6
18.08.2019 23:00:00 7,4 6,1 5 3 15 8 NW 1,1
18.08.2019 22:00:00 8,5 7,1 7 4 14 8 NW 1,0
18.08.2019 21:00:00 - - - - - - - -
18.08.2019 20:00:00 9,1 7,6 6 3 14 8 NW -
18.08.2019 19:00:00 - - - - - - - -
18.08.2019 18:00:00 10,7 9,2 6 3 14 8 NW 0,6
18.08.2019 17:00:00 11,3 9,7 6 4 - - NW -
18.08.2019 16:00:00 11,4 9,8 4 2 10 5 NW 0,1
18.08.2019 15:00:00 10,9 9,3 5 3 16 9 NNW 1,7
18.08.2019 14:00:00 10,2 8,7 5 3 13 7 NW -
18.08.2019 13:00:00 11,0 9,4 6 4 14 8 NW 1,4
18.08.2019 12:00:00 11,8 10,2 6 3 12 6 NW 0,1
18.08.2019 11:00:00 12,6 10,5 5 3 9 5 WNW 0,0
18.08.2019 10:00:00 12,8 9,9 3 1 12 7 W 0,0
18.08.2019 09:00:00 13,1 6,8 7 4 22 12 NNW 0,0
18.08.2019 08:00:00 15,8 6,5 6 4 26 14 WSW -
18.08.2019 07:00:00 15,9 3,6 14 8 24 13 SSW 0,0
18.08.2019 06:00:00 15,1 1,7 2 1 23 13 WNW 0,0
18.08.2019 05:00:00 16,7 1,9 16 8 27 15 SSW 0,0
18.08.2019 04:00:00 12,7 2,3 1 0 9 5 SW 0,0
18.08.2019 03:00:00 15,2 2,1 1 1 31 17 SE 0,0
18.08.2019 02:00:00 17,2 2,7 8 4 33 18 S -
18.08.2019 01:00:00 17,4 5,6 15 8 31 17 SSW 0,0
18.08.2019 00:00:00 17,4 7,4 14 8 29 15 SW 0,0
17.08.2019 23:00:00 18,1 6,8 14 8 27 14 SW 0,0
17.08.2019 22:00:00 17,9 6,1 10 6 17 9 SSW 0,0
17.08.2019 21:00:00 17,2 9,2 6 3 10 5 SSW 0,0
17.08.2019 20:00:00 20,7 13,0 0 0 10 5 NW -
17.08.2019 19:00:00 20,9 11,6 3 1 13 7 NNW 0,0
17.08.2019 18:00:00 21,4 11,4 7 4 19 10 NW 0,0
17.08.2019 17:00:00 21,9 11,3 5 3 13 7 NW 0,0
17.08.2019 16:00:00 22,1 11,4 6 3 14 7 N 0,0
17.08.2019 15:00:00 22,6 11,7 6 3 16 9 WNW 0,0
17.08.2019 14:00:00 22,8 9,2 4 2 18 10 WSW -

tt = temperature
td = dewpoint
ff = wind speed
fx = gusts
dd = wind direction
rr = precipitation

Next stations